Terminal Aerodrome Forecast
Issued by NWS

Home | Current Version | Previous Version | Text Only | Print | Product List | Glossary On
Versions: 1 2 3 4 5 6 7 8 9 10 11 12 13 14 15 16 17 18
930
FTUS44 KTSA 300520
TAFRVS
TAF
KRVS 300520Z 3006/0106 15007KT P6SM OVC007
     FM300900 22011KT 4SM -SHRA BR OVC004
     FM301400 21012G22KT P6SM VCSH OVC012
     FM301800 23018G26KT P6SM VCSH BKN025
     FM010000 25018G26KT P6SM OVC015=

USA.gov is the U.S. government's official web portal to all federal, state and local government web resources and services.